NORTHERN QUEENS  -  Air Quality Alert Air Quality Alert        SOUTHERN QUEENS  -  Air Quality Alert Air Quality Alert      

Active alerts

Northern Queens
  Details for Northern Queens Air Quality Alert
Southern Queens
  Details for Southern Queens Air Quality Alert


WXM80 ListenWXM80 Stop

You find our weather info also at:

UK Metoffice

WeatherCloud

Weather Underground

Northeastern Weather Network

AWEKAS

Citizen Weather Observer Program (CWOP)

HAMweather, WeatherForYou, PWS Weather


Weather Underground History page Text

Daily Summary for June 12, 2017 Units:  Metric    English   Both
« Previous Day
Next Day »
Daily Weekly Monthly Yearly Custom
  High: Low: Average:
Temperature: 36.9 °C 22.1 °C 29 °C
Dew Point: 22.5 °C 18.2 °C 19.5 °C
Humidity: 80 % 35 % 59 %
Wind Speed: 9.7 km/h 0 km/h 2.7 km/h
Wind Gust: 14.8 km/h - -
Wind:- - SW
Pressure: 1015.5 hPa 1011.1 hPa -
Precipitation: 0 mm    
Historical Graphs
 
 
Tabular Data for June 12, 2017
Time Temperature Dew Point Pressure Wind Wind Speed Wind Gust Humidity Rainfall Rate (Hourly)
00:04 24.1 °C 18.5 °C 1014.1 hPa SW 3.4 km/h 5.6 km/h 71 % 0 mm
00:09 24.2 °C 18.6 °C 1014.1 hPa South 0.8 km/h 7.4 km/h 71 % 0 mm
00:14 24.2 °C 18.6 °C 1013.8 hPa SW 3.7 km/h 5.6 km/h 71 % 0 mm
00:19 24.2 °C 18.6 °C 1013.8 hPa WSW 1.4 km/h 3.2 km/h 71 % 0 mm
00:24 24.2 °C 18.6 °C 1013.8 hPa Calm   1.9 km/h 71 % 0 mm
00:29 24.3 °C 18.7 °C 1014.1 hPa WSW 1.9 km/h 7.4 km/h 71 % 0 mm
00:34 24.3 °C 18.7 °C 1014.1 hPa SW 2.3 km/h 3.7 km/h 71 % 0 mm
00:39 24.4 °C 18.8 °C 1014.1 hPa SW 0.6 km/h 1.9 km/h 71 % 0 mm
00:44 24.4 °C 18.8 °C 1014.1 hPa SSW 4.7 km/h 5.6 km/h 71 % 0 mm
00:49 24.4 °C 18.8 °C 1014.1 hPa SW 1.1 km/h 1.9 km/h 71 % 0 mm
01:00 24.4 °C 18.8 °C 1014.1 hPa SW 1.8 km/h 3.7 km/h 71 % 0 mm
01:05 24.4 °C 18.8 °C 1013.8 hPa SW 2.7 km/h 5.6 km/h 71 % 0 mm
01:10 24.4 °C 18.8 °C 1013.8 hPa SW 1.9 km/h 5.6 km/h 71 % 0 mm
01:15 24.3 °C 18.7 °C 1014.1 hPa SW 2.6 km/h 5.6 km/h 71 % 0 mm
01:20 24.3 °C 18.9 °C 1013.8 hPa SW 1.1 km/h 4.8 km/h 72 % 0 mm
01:21 24.3 °C 18.9 °C 1013.8 hPa SW 0.8 km/h 5.6 km/h 72 % 0 mm
01:26 24.3 °C 18.9 °C 1013.8 hPa SW 2.1 km/h 4.8 km/h 72 % 0 mm
01:31 24.3 °C 18.9 °C 1013.8 hPa SW 3.5 km/h 5.6 km/h 72 % 0 mm
01:36 24.3 °C 18.9 °C 1013.8 hPa SW 1.4 km/h 5.6 km/h 72 % 0 mm
01:42 24.3 °C 18.9 °C 1013.8 hPa SW 6.3 km/h 13 km/h 72 % 0 mm
01:47 24.2 °C 18.8 °C 1013.8 hPa WSW 4.3 km/h 5.6 km/h 72 % 0 mm
01:52 24.2 °C 18.8 °C 1013.8 hPa SSW 5 km/h 6.4 km/h 72 % 0 mm
01:57 24.2 °C 18.8 °C 1013.8 hPa WSW 3.5 km/h 5.6 km/h 72 % 0 mm
01:58 24.2 °C 18.8 °C 1013.8 hPa WSW 1 km/h 5.6 km/h 72 % 0 mm
02:03 24.2 °C 18.8 °C 1013.8 hPa SW 0.3 km/h 5.6 km/h 72 % 0 mm
02:09 24.2 °C 19.1 °C 1013.8 hPa SSW 3.5 km/h 7.4 km/h 73 % 0 mm
02:14 24.2 °C 19 °C 1013.8 hPa SW 3.9 km/h 5.6 km/h 73 % 0 mm
02:19 24.2 °C 19 °C 1013.4 hPa SSW 2.1 km/h 5.6 km/h 73 % 0 mm
02:24 24.1 °C 18.9 °C 1013.4 hPa SW 2.6 km/h 7.4 km/h 73 % 0 mm
02:29 24.1 °C 18.9 °C 1013.4 hPa SW 0.2 km/h 1.9 km/h 73 % 0 mm
02:34 24.1 °C 18.9 °C 1013.4 hPa SW 3.7 km/h 5.6 km/h 73 % 0 mm
02:39 24.1 °C 18.9 °C 1013.4 hPa SW 2.4 km/h 5.6 km/h 73 % 0 mm
02:44 23.9 °C 19 °C 1013.4 hPa WSW 4 km/h 5.6 km/h 74 % 0 mm
02:49 23.9 °C 18.9 °C 1013.4 hPa SW 0.8 km/h 4.8 km/h 74 % 0 mm
02:54 23.8 °C 18.9 °C 1013.8 hPa SW 2.6 km/h 5.6 km/h 74 % 0 mm
02:59 23.8 °C 18.9 °C 1013.8 hPa SW 1 km/h 3.7 km/h 74 % 0 mm
03:04 23.8 °C 18.9 °C 1013.8 hPa SW 0.5 km/h 3.7 km/h 74 % 0 mm
03:09 23.7 °C 18.8 °C 1013.4 hPa SW 0.6 km/h 1.9 km/h 74 % 0 mm
03:14 23.7 °C 18.8 °C 1013.8 hPa SW 0.6 km/h 1.9 km/h 74 % 0 mm
03:19 23.6 °C 18.9 °C 1013.8 hPa SW 0.8 km/h 3.7 km/h 75 % 0 mm
03:24 23.6 °C 18.9 °C 1013.8 hPa SW 2.7 km/h 5.6 km/h 75 % 0 mm
03:26 23.6 °C 18.9 °C 1013.4 hPa Calm   1.9 km/h 75 % 0 mm
03:31 23.4 °C 18.8 °C 1013.8 hPa Calm   5.6 km/h 75 % 0 mm
03:36 23.4 °C 18.7 °C 1013.8 hPa Calm   3.7 km/h 75 % 0 mm
03:41 23.3 °C 18.9 °C 1013.8 hPa SW 1.4 km/h 3.7 km/h 76 % 0 mm
03:46 23.3 °C 18.8 °C 1013.8 hPa SW 0.6 km/h 5.6 km/h 76 % 0 mm
03:51 23.2 °C 18.8 °C 1013.8 hPa WSW 0.8 km/h 3.7 km/h 76 % 0 mm
03:56 23.2 °C 18.7 °C 1013.8 hPa WSW 2.1 km/h 5.6 km/h 76 % 0 mm
04:01 23.2 °C 18.9 °C 1014.1 hPa WSW 1.1 km/h 3.7 km/h 77 % 0 mm
04:06 23.1 °C 18.8 °C 1014.1 hPa WSW 1.4 km/h 5.6 km/h 77 % 0 mm
04:11 23.1 °C 18.8 °C 1014.1 hPa SW 1.9 km/h 3.2 km/h 77 % 0 mm
04:16 23 °C 18.7 °C 1014.1 hPa WSW 1.8 km/h 3.2 km/h 77 % 0 mm
04:21 22.9 °C 18.7 °C 1014.1 hPa WSW 1.3 km/h 5.6 km/h 77 % 0 mm
04:27 22.9 °C 18.7 °C 1013.8 hPa SW 3.9 km/h 5.6 km/h 77 % 0 mm
04:32 22.9 °C 18.8 °C 1013.8 hPa SW 3.4 km/h 7.4 km/h 78 % 0 mm
04:37 22.8 °C 18.8 °C 1014.1 hPa SW 3.1 km/h 5.6 km/h 78 % 0 mm
04:42 22.8 °C 18.7 °C 1014.1 hPa SW 3.4 km/h 5.6 km/h 78 % 0 mm
04:47 22.7 °C 18.7 °C 1014.4 hPa SSW 3.2 km/h 5.6 km/h 78 % 0 mm
04:52 22.7 °C 18.6 °C 1014.4 hPa SW 4.5 km/h 5.6 km/h 78 % 0 mm
04:57 22.6 °C 18.8 °C 1014.4 hPa SW 2.1 km/h 5.6 km/h 79 % 0 mm
05:02 22.6 °C 18.5 °C 1014.4 hPa SW 1.1 km/h 5.6 km/h 78 % 0 mm
05:07 22.5 °C 18.4 °C 1014.4 hPa SW 1.3 km/h 3.7 km/h 78 % 0 mm
05:12 22.4 °C 18.6 °C 1014.4 hPa SW 2.9 km/h 3.7 km/h 79 % 0 mm
05:17 22.3 °C 18.5 °C 1014.4 hPa WSW 3.2 km/h 6.4 km/h 79 % 0 mm
05:22 22.3 °C 18.4 °C 1014.4 hPa SSW 3.4 km/h 5.6 km/h 79 % 0 mm
05:27 22.2 °C 18.4 °C 1014.4 hPa SSW 4.2 km/h 9.3 km/h 79 % 0 mm
05:32 22.2 °C 18.6 °C 1014.4 hPa SW 3.7 km/h 5.6 km/h 80 % 0 mm
05:37 22.1 °C 18.3 °C 1014.8 hPa SW 3.7 km/h 5.6 km/h 79 % 0 mm
05:42 22.1 °C 18.5 °C 1014.8 hPa SW 3.5 km/h 5.6 km/h 80 % 0 mm
05:47 22.1 °C 18.2 °C 1014.8 hPa SSW 3.7 km/h 5.6 km/h 79 % 0 mm
05:52 22.1 °C 18.2 °C 1014.8 hPa SW 2.3 km/h 5.6 km/h 79 % 0 mm
05:57 22.1 °C 18.2 °C 1014.8 hPa SW 3.5 km/h 5.6 km/h 79 % 0 mm
06:02 22.1 °C 18.2 °C 1015.1 hPa WSW 3.7 km/h 5.6 km/h 79 % 0 mm
06:07 22.1 °C 18.3 °C 1015.1 hPa SW 4.2 km/h 6.4 km/h 79 % 0 mm
06:12 22.1 °C 18.3 °C 1015.1 hPa SW 4.7 km/h 6.4 km/h 79 % 0 mm
06:17 22.2 °C 18.3 °C 1015.1 hPa SW 5.1 km/h 6.4 km/h 79 % 0 mm
06:22 22.2 °C 18.4 °C 1015.5 hPa SW 4.7 km/h 6.4 km/h 79 % 0 mm
06:27 22.3 °C 18.4 °C 1015.1 hPa SW 5 km/h 5.6 km/h 79 % 0 mm
06:32 22.4 °C 18.4 °C 1015.5 hPa SW 4.8 km/h 11.1 km/h 78 % 0 mm
06:37 22.6 °C 18.3 °C 1015.5 hPa SW 3.1 km/h 5.6 km/h 77 % 0 mm
06:42 22.7 °C 18.5 °C 1015.5 hPa SW 4.3 km/h 5.6 km/h 77 % 0 mm
06:47 22.9 °C 18.7 °C 1015.5 hPa SW 4.5 km/h 6.4 km/h 77 % 0 mm
06:52 23.1 °C 18.8 °C 1015.5 hPa SW 4.3 km/h 6.4 km/h 77 % 0 mm
06:57 23.3 °C 18.8 °C 1015.5 hPa SW 5.3 km/h 6.4 km/h 76 % 0 mm
07:02 23.5 °C 18.8 °C 1015.5 hPa SW 5 km/h 6.4 km/h 75 % 0 mm
07:07 23.7 °C 18.8 °C 1015.1 hPa SW 4.8 km/h 6.4 km/h 74 % 0 mm
07:12 23.9 °C 18.8 °C 1015.1 hPa SSW 6 km/h 11.1 km/h 73 % 0 mm
07:17 24.3 °C 18.9 °C 1015.5 hPa SW 5.6 km/h 9.3 km/h 72 % 0 mm
07:23 24.5 °C 19.1 °C 1015.5 hPa SW 5.5 km/h 7.4 km/h 72 % 0 mm
07:28 24.8 °C 19.2 °C 1015.5 hPa West 2.4 km/h 5.6 km/h 71 % 0 mm
07:33 25 °C 18.9 °C 1015.5 hPa SSW 4.7 km/h 11.3 km/h 69 % 0 mm
07:35 25.1 °C 18.8 °C 1015.5 hPa WNW 5.1 km/h 11.1 km/h 68 % 0 mm
07:39 25.3 °C 19.2 °C 1015.5 hPa SW 5.8 km/h 9.3 km/h 69 % 0 mm
07:45 25.4 °C 19.1 °C 1015.5 hPa West 3.7 km/h 5.6 km/h 68 % 0 mm
07:50 25.6 °C 18.7 °C 1015.5 hPa West 5.1 km/h 7.4 km/h 66 % 0 mm
07:55 25.7 °C 18.8 °C 1015.5 hPa WSW 1.6 km/h 5.6 km/h 66 % 0 mm
08:00 25.7 °C 18.9 °C 1015.5 hPa SW 4.3 km/h 9.7 km/h 66 % 0 mm
08:05 25.8 °C 18.8 °C 1015.5 hPa WSW 7.2 km/h 11.1 km/h 65 % 0 mm
08:10 25.9 °C 18.8 °C 1015.5 hPa WSW 4.3 km/h 8 km/h 65 % 0 mm
08:15 26 °C 18.9 °C 1015.5 hPa West 4 km/h 9.3 km/h 65 % 0 mm
08:20 26.1 °C 19 °C 1015.5 hPa West 6.6 km/h 9.3 km/h 65 % 0 mm
08:25 26.2 °C 19.3 °C 1015.5 hPa WSW 1.6 km/h 5.6 km/h 66 % 0 mm
08:30 26.3 °C 18.9 °C 1015.5 hPa SW 4.3 km/h 5.6 km/h 64 % 0 mm
08:35 26.4 °C 19.3 °C 1015.5 hPa WSW 4.3 km/h 12.9 km/h 65 % 0 mm
08:40 26.6 °C 18.9 °C 1015.5 hPa WSW 5 km/h 9.3 km/h 63 % 0 mm
08:45 26.7 °C 19.3 °C 1015.5 hPa SSW 3.4 km/h 8 km/h 64 % 0 mm
08:50 26.8 °C 19.2 °C 1015.5 hPa SW 4.5 km/h 6.4 km/h 63 % 0 mm
08:55 26.8 °C 19.2 °C 1015.5 hPa WNW 5.1 km/h 7.4 km/h 63 % 0 mm
09:00 26.9 °C 18.8 °C 1015.5 hPa SW 7.4 km/h 9.7 km/h 61 % 0 mm
09:05 27.1 °C 18.9 °C 1015.5 hPa WSW 5.8 km/h 9.3 km/h 61 % 0 mm
09:10 27.1 °C 18.9 °C 1015.5 hPa West 1.6 km/h 7.4 km/h 61 % 0 mm
09:15 27.2 °C 19 °C 1015.1 hPa SW 5.3 km/h 7.4 km/h 61 % 0 mm
09:20 27.2 °C 19.1 °C 1015.1 hPa WSW 5.3 km/h 9.3 km/h 61 % 0 mm
09:26 27.3 °C 18.9 °C 1015.1 hPa WSW 3.2 km/h 9.7 km/h 60 % 0 mm
09:31 27.4 °C 19.3 °C 1015.1 hPa WSW 4.8 km/h 9.7 km/h 61 % 0 mm
09:36 27.6 °C 19.1 °C 1015.1 hPa SW 4.8 km/h 12.9 km/h 60 % 0 mm
09:39 27.7 °C 19.2 °C 1015.1 hPa WSW 6.1 km/h 7.4 km/h 60 % 0 mm
09:44 28 °C 19.5 °C 1014.8 hPa WSW 6.1 km/h 14.8 km/h 60 % 0 mm
09:49 28.4 °C 19.6 °C 1015.1 hPa West 9.3 km/h 13 km/h 59 % 0 mm
09:54 28.8 °C 20.3 °C 1014.8 hPa SW 5.6 km/h 9.7 km/h 60 % 0 mm
09:59 29.3 °C 20.2 °C 1014.8 hPa West 5 km/h 9.3 km/h 58 % 0 mm
10:04 29.8 °C 20.1 °C 1014.8 hPa WNW 3.4 km/h 5.6 km/h 56 % 0 mm
10:09 30.2 °C 20.4 °C 1014.8 hPa WNW 1 km/h 7.4 km/h 56 % 0 mm
10:14 30.7 °C 20 °C 1014.8 hPa WNW 4.3 km/h 9.7 km/h 53 % 0 mm
10:19 31.1 °C 20.7 °C 1014.8 hPa SW 1.1 km/h 7.4 km/h 54 % 0 mm
10:24 31.6 °C 20.5 °C 1014.8 hPa WNW 5.8 km/h 9.3 km/h 52 % 0 mm
10:29 32 °C 21.2 °C 1014.8 hPa West 3.2 km/h 9.3 km/h 53 % 0 mm
10:34 32.3 °C 20.6 °C 1014.8 hPa West 3.7 km/h 5.6 km/h 50 % 0 mm
10:39 32.7 °C 21.5 °C 1014.4 hPa WNW 5.5 km/h 7.4 km/h 52 % 0 mm
10:44 33 °C 21.5 °C 1014.8 hPa NW 2.1 km/h 5.6 km/h 51 % 0 mm
10:49 33.3 °C 20.8 °C 1014.4 hPa NW 8.4 km/h 11.3 km/h 48 % 0 mm
10:54 33.4 °C 20.9 °C 1014.4 hPa NW 1.3 km/h 5.6 km/h 48 % 0 mm
10:59 33.7 °C 20.8 °C 1014.4 hPa North 2.7 km/h 6.4 km/h 47 % 0 mm
11:04 33.8 °C 20.9 °C 1014.4 hPa WNW 6.1 km/h 9.3 km/h 47 % 0 mm
11:09 34.1 °C 21.2 °C 1014.4 hPa WNW 5.6 km/h 9.3 km/h 47 % 0 mm
11:14 34.3 °C 22.4 °C 1014.4 hPa NE 2.4 km/h 7.4 km/h 50 % 0 mm
11:19 34.4 °C 21.8 °C 1014.4 hPa North 3.1 km/h 5.6 km/h 48 % 0 mm
11:24 34.5 °C 20.8 °C 1014.8 hPa NW 2.3 km/h 4.8 km/h 45 % 0 mm
11:29 34.5 °C 21.2 °C 1014.4 hPa NW 3.2 km/h 5.6 km/h 46 % 0 mm
11:34 34.5 °C 20.8 °C 1014.4 hPa North 4.5 km/h 9.7 km/h 45 % 0 mm
11:39 34.4 °C 21.8 °C 1014.4 hPa NW 1.1 km/h 5.6 km/h 48 % 0 mm
11:44 34.4 °C 20.4 °C 1014.4 hPa WNW 4.3 km/h 11.1 km/h 44 % 0 mm
11:49 34.6 °C 21.2 °C 1014.4 hPa WNW 4.2 km/h 6.4 km/h 46 % 0 mm
11:54 34.6 °C 21.3 °C 1014.1 hPa NNE 3.2 km/h 5.6 km/h 46 % 0 mm
11:59 34.7 °C 21 °C 1014.4 hPa NW 2.7 km/h 7.4 km/h 45 % 0 mm
12:04 34.8 °C 22.5 °C 1014.4 hPa WNW 3.7 km/h 11.3 km/h 49 % 0 mm
12:10 34.9 °C 21.2 °C 1014.4 hPa North 5.1 km/h 5.6 km/h 45 % 0 mm
12:15 34.9 °C 21.2 °C 1014.1 hPa WNW 4.8 km/h 4.8 km/h 45 % 0 mm
12:20 34.9 °C 20.1 °C 1014.1 hPa NW 3.1 km/h 6.4 km/h 42 % 0 mm
12:25 35 °C 20.9 °C 1014.1 hPa WNW 3.9 km/h 9.3 km/h 44 % 0 mm
12:30 35.1 °C 21 °C 1014.1 hPa NW 5.5 km/h 9.3 km/h 44 % 0 mm
12:35 35.1 °C 21.4 °C 1014.1 hPa North 2.3 km/h 11.3 km/h 45 % 0 mm
12:40 35.2 °C 21.1 °C 1014.1 hPa WNW 4.5 km/h 9.3 km/h 44 % 0 mm
12:45 35.3 °C 21.6 °C 1014.1 hPa NE 5.1 km/h 9.3 km/h 45 % 0 mm
12:50 35.3 °C 20.4 °C 1014.1 hPa WNW 2.7 km/h 9.3 km/h 42 % 0 mm
12:55 35.4 °C 20.5 °C 1014.1 hPa NNE 4.3 km/h 7.4 km/h 42 % 0 mm
13:00 35.4 °C 20.2 °C 1014.1 hPa NW 4.8 km/h 13 km/h 41 % 0 mm
13:05 35.6 °C 20.7 °C 1014.1 hPa West 2.9 km/h 6.4 km/h 42 % 0 mm
13:10 35.6 °C 20.3 °C 1013.8 hPa ENE 6 km/h 9.3 km/h 41 % 0 mm
13:15 35.5 °C 19.8 °C 1013.8 hPa NNE 6 km/h 8 km/h 40 % 0 mm
13:20 35.5 °C 20.6 °C 1013.8 hPa NE 1.9 km/h 9.3 km/h 42 % 0 mm
13:25 35.6 °C 19.4 °C 1013.8 hPa NNW 6.1 km/h 8 km/h 39 % 0 mm
13:30 35.7 °C 20.4 °C 1013.8 hPa North 4.5 km/h 7.4 km/h 41 % 0 mm
13:35 35.8 °C 20.9 °C 1013.8 hPa WNW 2.3 km/h 5.6 km/h 42 % 0 mm
13:40 35.9 °C 20.9 °C 1013.8 hPa NW 1.1 km/h 3.7 km/h 42 % 0 mm
13:45 36.1 °C 19.9 °C 1013.4 hPa NW 2.1 km/h 3.7 km/h 39 % 0 mm
13:50 36.2 °C 21.6 °C 1013.4 hPa NW 0.2 km/h 3.7 km/h 43 % 0 mm
13:55 36.3 °C 20.9 °C 1013.4 hPa NW 1.3 km/h 5.6 km/h 41 % 0 mm
14:00 36.5 °C 21.5 °C 1013.1 hPa NW 0.6 km/h 3.7 km/h 42 % 0 mm
14:05 36.6 °C 22 °C 1013.1 hPa WNW 2.6 km/h 6.4 km/h 43 % 0 mm
14:11 36.8 °C 21.4 °C 1013.1 hPa NNE 3.2 km/h 7.4 km/h 41 % 0 mm
14:16 36.8 °C 21.4 °C 1013.1 hPa NNE 1.6 km/h 4.8 km/h 41 % 0 mm
14:21 36.8 °C 21.8 °C 1013.1 hPa NNE 1.6 km/h 8 km/h 42 % 0 mm
14:26 36.9 °C 21.4 °C 1013.1 hPa Calm   8 km/h 41 % 0 mm
14:31 36.8 °C 21.8 °C 1012.8 hPa Calm   6.4 km/h 42 % 0 mm
14:36 36.8 °C 20.6 °C 1012.8 hPa North 4.8 km/h 8 km/h 39 % 0 mm
14:41 36.8 °C 20.6 °C 1012.4 hPa West 1.6 km/h 9.7 km/h 39 % 0 mm
14:45 36.8 °C 21 °C 1012.4 hPa SW 8.2 km/h 9.3 km/h 40 % 0 mm
14:50 36.8 °C 21 °C 1012.4 hPa West 2.9 km/h 9.3 km/h 40 % 0 mm
14:56 36.9 °C 19.3 °C 1012.4 hPa WSW 4.8 km/h 12.9 km/h 36 % 0 mm
15:01 36.8 °C 19.8 °C 1012.4 hPa WSW 7.6 km/h 11.1 km/h 37 % 0 mm
15:06 36.8 °C 19.3 °C 1012.4 hPa SSW 9.7 km/h 13 km/h 36 % 0 mm
15:11 36.7 °C 20.1 °C 1012.4 hPa WNW 4.8 km/h 9.3 km/h 38 % 0 mm
15:16 36.8 °C 20.1 °C 1012.4 hPa WSW 5.6 km/h 8 km/h 38 % 0 mm
15:21 36.8 °C 20.6 °C 1012.4 hPa WNW 4.7 km/h 9.3 km/h 39 % 0 mm
15:26 36.8 °C 19.7 °C 1012.4 hPa SW 7.4 km/h 14.8 km/h 37 % 0 mm
15:31 36.8 °C 19.7 °C 1012.4 hPa NW 3.4 km/h 5.6 km/h 37 % 0 mm
15:36 36.8 °C 20.2 °C 1012.4 hPa WSW 4.8 km/h 8 km/h 38 % 0 mm
15:41 36.8 °C 21 °C 1012.1 hPa West 4.3 km/h 6.4 km/h 40 % 0 mm
15:46 36.8 °C 19.3 °C 1012.1 hPa NW 4 km/h 7.4 km/h 36 % 0 mm
15:51 36.8 °C 19.7 °C 1012.1 hPa SW 2.6 km/h 9.7 km/h 37 % 0 mm
15:56 36.8 °C 19.7 °C 1012.1 hPa NNW 6.4 km/h 9.7 km/h 37 % 0 mm
16:01 36.8 °C 19.3 °C 1012.1 hPa SSW 4 km/h 11.1 km/h 36 % 0 mm
16:06 36.8 °C 19.8 °C 1012.1 hPa WSW 2.1 km/h 9.7 km/h 37 % 0 mm
16:11 36.8 °C 19.3 °C 1012.1 hPa West 5.3 km/h 7.4 km/h 36 % 0 mm
16:16 36.8 °C 18.8 °C 1012.1 hPa West 4.2 km/h 5.6 km/h 35 % 0 mm
16:22 36.8 °C 19.3 °C 1012.1 hPa SSW 3.9 km/h 5.6 km/h 36 % 0 mm
16:27 36.8 °C 19.3 °C 1012.1 hPa WSW 5.5 km/h 11.1 km/h 36 % 0 mm
16:32 36.7 °C 19.2 °C 1012.1 hPa WSW 5.1 km/h 11.1 km/h 36 % 0 mm
16:37 36.6 °C 19.1 °C 1011.7 hPa SSW 6.8 km/h 11.1 km/h 36 % 0 mm
16:42 36.6 °C 19.9 °C 1011.7 hPa SSW 3.4 km/h 5.6 km/h 38 % 0 mm
16:47 36.5 °C 19.9 °C 1011.7 hPa SSW 7.7 km/h 11.1 km/h 38 % 0 mm
16:52 36.4 °C 19.8 °C 1011.7 hPa SW 1 km/h 5.6 km/h 38 % 0 mm
16:57 36.3 °C 20.5 °C 1011.4 hPa SSW 6.4 km/h 9.7 km/h 40 % 0 mm
17:02 36.1 °C 19.9 °C 1011.4 hPa South 5.3 km/h 9.7 km/h 39 % 0 mm
17:07 35.8 °C 20.9 °C 1011.7 hPa WSW 2.4 km/h 2.4 km/h 42 % 0 mm
17:12 35.7 °C 20.4 °C 1011.4 hPa SW 0.8 km/h 5.6 km/h 41 % 0 mm
17:17 35.4 °C 20.6 °C 1011.4 hPa WSW 1.4 km/h 5.6 km/h 42 % 0 mm
17:22 35.2 °C 20 °C 1011.4 hPa SE 0.8 km/h 5.6 km/h 41 % 0 mm
17:27 34.9 °C 19.7 °C 1011.7 hPa SW 0.8 km/h 4.8 km/h 41 % 0 mm
17:32 34.7 °C 20.3 °C 1011.4 hPa SE 1.8 km/h 4.8 km/h 43 % 0 mm
17:38 34.4 °C 20.4 °C 1011.4 hPa SW 1.4 km/h 5.6 km/h 44 % 0 mm
17:43 34.1 °C 19.7 °C 1011.4 hPa SSW 4.2 km/h 7.4 km/h 43 % 0 mm
17:48 33.8 °C 19.9 °C 1011.4 hPa SSW 1.3 km/h 5.6 km/h 44 % 0 mm
17:53 33.7 °C 19.7 °C 1011.4 hPa SE 1 km/h 8 km/h 44 % 0 mm
17:58 33.4 °C 19.9 °C 1011.4 hPa SSW 2.9 km/h 5.6 km/h 45 % 0 mm
18:03 33.2 °C 19.7 °C 1011.4 hPa SSW 0.3 km/h 3.7 km/h 45 % 0 mm
18:08 33.1 °C 19.9 °C 1011.1 hPa SSE 1.3 km/h 3.7 km/h 46 % 0 mm
18:13 32.9 °C 19.7 °C 1011.1 hPa SW 1.1 km/h 4.8 km/h 46 % 0 mm
18:18 32.7 °C 19.6 °C 1011.1 hPa SSW 1.3 km/h 5.6 km/h 46 % 0 mm
18:23 32.6 °C 19.4 °C 1011.1 hPa SSE 0.6 km/h 3.7 km/h 46 % 0 mm
18:28 32.4 °C 19.6 °C 1011.1 hPa ESE 0.8 km/h 8 km/h 47 % 0 mm
18:33 32.2 °C 19.5 °C 1011.4 hPa SSW 1 km/h 3.7 km/h 47 % 0 mm
18:38 32.1 °C 19.7 °C 1011.4 hPa WSW 1.3 km/h 3.7 km/h 48 % 0 mm
18:43 32 °C 19.9 °C 1011.4 hPa SSW 1.9 km/h 5.6 km/h 49 % 0 mm
18:48 31.8 °C 19.4 °C 1011.4 hPa SW 2.3 km/h 5.6 km/h 48 % 0 mm
18:53 31.8 °C 19.7 °C 1011.4 hPa WSW 1 km/h 3.7 km/h 49 % 0 mm
18:58 31.6 °C 19.6 °C 1011.4 hPa Calm   1.9 km/h 49 % 0 mm
19:03 31.5 °C 19.5 °C 1011.4 hPa WSW 0.5 km/h 5.6 km/h 49 % 0 mm
19:08 31.4 °C 19.4 °C 1011.4 hPa South 1.9 km/h 3.7 km/h 49 % 0 mm
19:13 31.3 °C 19.6 °C 1011.4 hPa South 0.2 km/h 1.9 km/h 50 % 0 mm
19:18 31.2 °C 19.6 °C 1011.4 hPa SW 1 km/h 3.7 km/h 50 % 0 mm
19:23 31.1 °C 19.8 °C 1011.4 hPa SW 1 km/h 3.2 km/h 51 % 0 mm
19:28 31 °C 19.7 °C 1011.4 hPa SW 0.2 km/h 1.9 km/h 51 % 0 mm
19:33 30.9 °C 19.6 °C 1011.4 hPa SW 1.8 km/h 3.7 km/h 51 % 0 mm
19:38 30.8 °C 19.8 °C 1011.4 hPa SW 0.3 km/h 1.9 km/h 52 % 0 mm
19:39 30.8 °C 19.8 °C 1011.4 hPa Calm   1.9 km/h 52 % 0 mm
19:44 30.6 °C 19.6 °C 1011.4 hPa Calm     52 % 0 mm
19:50 30.5 °C 19.8 °C 1011.4 hPa Calm   1.9 km/h 53 % 0 mm
19:55 30.3 °C 19.7 °C 1011.4 hPa Calm   1.9 km/h 53 % 0 mm
20:00 30.2 °C 19.6 °C 1011.4 hPa SW 0.2 km/h 1.9 km/h 53 % 0 mm
20:05 30.1 °C 19.7 °C 1011.4 hPa SW 0.3 km/h 1.9 km/h 54 % 0 mm
20:10 29.9 °C 19.6 °C 1011.4 hPa WSW 0.5 km/h 3.2 km/h 54 % 0 mm
20:15 29.7 °C 19.4 °C 1011.4 hPa Calm   1.9 km/h 54 % 0 mm
20:20 29.6 °C 19.6 °C 1011.4 hPa Calm     55 % 0 mm
20:25 29.4 °C 19.4 °C 1011.4 hPa WSW 1.4 km/h 5.6 km/h 55 % 0 mm
20:28 29.3 °C 19.3 °C 1011.4 hPa Calm   1.9 km/h 55 % 0 mm
20:33 29.1 °C 19.4 °C 1011.4 hPa Calm     56 % 0 mm
20:38 28.9 °C 19.6 °C 1011.4 hPa Calm     57 % 0 mm
20:43 28.8 °C 19.4 °C 1011.4 hPa Calm     57 % 0 mm
20:48 28.7 °C 19.3 °C 1011.4 hPa Calm   1.9 km/h 57 % 0 mm
20:53 28.5 °C 19.4 °C 1011.4 hPa Calm     58 % 0 mm
20:54 28.4 °C 19.4 °C 1011.4 hPa Calm     58 % 0 mm
20:59 28.3 °C 19.2 °C 1011.4 hPa Calm     58 % 0 mm
21:04 28.2 °C 19.4 °C 1011.4 hPa Calm     59 % 0 mm
21:09 28 °C 19.2 °C 1011.4 hPa Calm   3.7 km/h 59 % 0 mm
21:14 27.9 °C 19.1 °C 1011.7 hPa Calm     59 % 0 mm
21:19 27.7 °C 19.2 °C 1011.7 hPa Calm     60 % 0 mm
21:24 27.6 °C 19.1 °C 1011.7 hPa Calm     60 % 0 mm
21:29 27.4 °C 19.3 °C 1011.7 hPa SW 0.2 km/h   61 % 0 mm
21:34 27.3 °C 19.1 °C 1011.7 hPa Calm   1.6 km/h 61 % 0 mm
21:40 27.2 °C 19.3 °C 1011.7 hPa Calm     62 % 0 mm
21:45 27 °C 19.1 °C 1011.7 hPa Calm   1.9 km/h 62 % 0 mm
21:50 26.9 °C 19 °C 1011.7 hPa Calm     62 % 0 mm
21:55 26.8 °C 18.9 °C 1012.1 hPa Calm     62 % 0 mm
22:00 26.7 °C 18.8 °C 1012.1 hPa Calm     62 % 0 mm
22:05 26.6 °C 19 °C 1011.7 hPa Calm     63 % 0 mm
22:10 26.5 °C 18.6 °C 1011.7 hPa Calm     62 % 0 mm
22:15 26.4 °C 18.8 °C 1012.1 hPa Calm     63 % 0 mm
22:20 26.4 °C 18.8 °C 1012.1 hPa Calm     63 % 0 mm
22:25 26.3 °C 18.7 °C 1012.1 hPa Calm     63 % 0 mm
22:30 26.2 °C 18.6 °C 1012.1 hPa Calm     63 % 0 mm
22:35 26.2 °C 18.8 °C 1012.1 hPa Calm     64 % 0 mm
22:40 26.1 °C 18.8 °C 1011.7 hPa Calm     64 % 0 mm
22:45 26 °C 18.4 °C 1011.7 hPa Calm     63 % 0 mm
22:50 25.9 °C 18.6 °C 1011.7 hPa SW 0.2 km/h 1.9 km/h 64 % 0 mm
22:55 25.8 °C 18.5 °C 1011.7 hPa SW 0.2 km/h 3.2 km/h 64 % 0 mm
23:00 25.8 °C 18.4 °C 1011.7 hPa Calm   1.9 km/h 64 % 0 mm
23:05 25.7 °C 18.4 °C 1011.7 hPa Calm     64 % 0 mm
23:10 25.7 °C 18.3 °C 1011.7 hPa SW 0.5 km/h 1.9 km/h 64 % 0 mm
23:15 25.7 °C 18.6 °C 1011.7 hPa SW 1.4 km/h 5.6 km/h 65 % 0 mm
23:20 25.6 °C 18.6 °C 1011.7 hPa Calm   3.7 km/h 65 % 0 mm
23:25 25.6 °C 18.2 °C 1011.7 hPa Calm     64 % 0 mm
23:30 25.6 °C 18.2 °C 1011.7 hPa Calm     64 % 0 mm
23:35 25.5 °C 18.4 °C 1011.7 hPa Calm     65 % 0 mm
23:41 25.5 °C 18.4 °C 1011.7 hPa Calm   1.6 km/h 65 % 0 mm
23:46 25.4 °C 18.4 °C 1011.7 hPa Calm   1.6 km/h 65 % 0 mm
23:51 25.4 °C 18.4 °C 1011.7 hPa Calm     65 % 0 mm
23:56 25.4 °C 18.3 °C 1011.7 hPa SW 0.2 km/h 1.9 km/h 65 % 0 mm
Crab Meadow Weather
Compliments of Weather Underground - 3 mb

Script developed by  Jim McMurry - jmcmurry@mwt.net Adapted for the template by  Wim van der Kuil - Leuven-Template.eu

Hurricanes: Hurricanes are classified into five categories, based on their wind speeds and potential to cause damage. * Category One -- Winds 74-95 miles per hour * Category Two -- Winds 96-110 miles per hour * Category Three -- Winds 111-130 miles per hour * Category Four -- Winds 131-155 miles per hour * Category Five -- Winds greater than 155 miles per hour.